sensor_id;sensor_type;location;lat;lon;timestamp;pressure;altitude;pressure_sealevel;temperature;humidity
43257;BME280;28860;43.212;27.934;2022-09-01T10:03:12;100671.28;;;33.00;40.61
43257;BME280;28860;43.212;27.934;2022-09-01T10:06:03;100676.22;;;33.10;41.07
43257;BME280;28860;43.212;27.934;2022-09-01T10:08:44;100681.41;;;33.19;41.19
43257;BME280;28860;43.212;27.934;2022-09-01T10:11:40;100682.81;;;33.33;41.12
43257;BME280;28860;43.212;27.934;2022-09-01T10:14:16;100684.59;;;33.39;40.98
43257;BME280;28860;43.212;27.934;2022-09-01T10:16:46;100686.66;;;33.44;40.98
43257;BME280;28860;43.212;27.934;2022-09-01T10:19:21;100683.00;;;33.43;40.54
43257;BME280;28860;43.212;27.934;2022-09-01T10:21:48;100686.03;;;33.54;40.45
43257;BME280;28860;43.212;27.934;2022-09-01T10:24:45;100692.78;;;33.58;39.63
43257;BME280;28860;43.212;27.934;2022-09-01T10:27:26;100688.91;;;33.59;39.73
43257;BME280;28860;43.212;27.934;2022-09-01T10:30:12;100662.34;;;33.51;39.48
43257;BME280;28860;43.212;27.934;2022-09-01T10:32:45;100678.38;;;33.61;39.73
43257;BME280;28860;43.212;27.934;2022-09-01T10:35:43;100675.13;;;33.64;41.27
43257;BME280;28860;43.212;27.934;2022-09-01T10:38:20;100679.47;;;33.60;43.81
43257;BME280;28860;43.212;27.934;2022-09-01T10:40:49;100680.16;;;33.67;44.19
43257;BME280;28860;43.212;27.934;2022-09-01T10:46:09;100669.06;;;33.67;43.80
43257;BME280;28860;43.212;27.934;2022-09-01T10:48:56;100680.38;;;33.78;43.87
43257;BME280;28860;43.212;27.934;2022-09-01T10:53:55;100689.00;;;33.93;43.18
43257;BME280;28860;43.212;27.934;2022-09-01T10:56:46;100688.00;;;33.99;42.76
43257;BME280;28860;43.212;27.934;2022-09-01T10:59:28;100668.31;;;33.89;43.01
43257;BME280;28860;43.212;27.934;2022-09-01T11:13:53;100680.31;;;34.36;42.16
43257;BME280;28860;43.212;27.934;2022-09-01T11:15:51;100669.50;;;34.22;42.65
43257;BME280;28860;43.212;27.934;2022-09-01T11:18:28;100657.16;;;34.18;42.70
43257;BME280;28860;43.212;27.934;2022-09-01T11:21:14;100668.81;;;34.15;42.91
43257;BME280;28860;43.212;27.934;2022-09-01T11:23:42;100664.94;;;34.16;43.30
43257;BME280;28860;43.212;27.934;2022-09-01T11:29:02;100666.69;;;34.39;42.71
43257;BME280;28860;43.212;27.934;2022-09-01T11:31:41;100668.59;;;34.51;42.04
43257;BME280;28860;43.212;27.934;2022-09-01T11:34:14;100674.91;;;34.63;41.86
43257;BME280;28860;43.212;27.934;2022-09-01T11:42:01;100677.72;;;34.85;41.20
43257;BME280;28860;43.212;27.934;2022-09-01T11:47:40;100677.88;;;34.96;40.38
43257;BME280;28860;43.212;27.934;2022-09-01T11:50:24;100678.31;;;35.05;40.63
43257;BME280;28860;43.212;27.934;2022-09-01T11:53:21;100650.50;;;34.93;40.90
43257;BME280;28860;43.212;27.934;2022-09-01T11:55:50;100675.84;;;34.91;40.64
43257;BME280;28860;43.212;27.934;2022-09-01T12:00:56;100655.06;;;34.99;40.32
43257;BME280;28860;43.212;27.934;2022-09-01T12:03:29;100673.84;;;35.04;40.41
43257;BME280;28860;43.212;27.934;2022-09-01T12:06:00;100661.91;;;34.69;40.65
43257;BME280;28860;43.212;27.934;2022-09-01T12:08:58;100673.19;;;34.45;41.30
43257;BME280;28860;43.212;27.934;2022-09-01T12:11:28;100660.38;;;34.10;41.80
43257;BME280;28860;43.212;27.934;2022-09-01T12:14:03;100672.63;;;33.97;41.99
43257;BME280;28860;43.212;27.934;2022-09-01T12:16:30;100669.25;;;33.78;42.75
43257;BME280;28860;43.212;27.934;2022-09-01T12:18:59;100673.44;;;33.63;42.92
43257;BME280;28860;43.212;27.934;2022-09-01T12:24:16;100676.38;;;33.44;43.09
43257;BME280;28860;43.212;27.934;2022-09-01T12:26:43;100667.56;;;33.36;43.39
43257;BME280;28860;43.212;27.934;2022-09-01T12:29:10;100666.50;;;33.25;43.55
43257;BME280;28860;43.212;27.934;2022-09-01T12:31:40;100657.84;;;33.09;43.66
43257;BME280;28860;43.212;27.934;2022-09-01T12:37:22;100667.16;;;33.56;43.78
43257;BME280;28860;43.212;27.934;2022-09-01T12:40:03;100663.56;;;33.72;43.22
43257;BME280;28860;43.212;27.934;2022-09-01T12:42:32;100684.13;;;34.00;42.53
43257;BME280;28860;43.212;27.934;2022-09-01T12:45:00;100686.38;;;34.15;42.10
43257;BME280;28860;43.212;27.934;2022-09-01T12:47:48;100652.13;;;34.15;41.08
43257;BME280;28860;43.212;27.934;2022-09-01T12:52:59;100672.22;;;34.51;40.81
43257;BME280;28860;43.212;27.934;2022-09-01T12:55:37;100679.47;;;34.52;40.34
43257;BME280;28860;43.212;27.934;2022-09-01T12:58:08;100686.56;;;34.60;40.42
43257;BME280;28860;43.212;27.934;2022-09-01T13:00:54;100689.56;;;34.58;40.18
43257;BME280;28860;43.212;27.934;2022-09-01T13:03:22;100656.84;;;34.32;40.45
43257;BME280;28860;43.212;27.934;2022-09-01T13:05:56;100692.69;;;34.45;40.46
43257;BME280;28860;43.212;27.934;2022-09-01T13:08:33;100696.38;;;34.17;40.80
43257;BME280;28860;43.212;27.934;2022-09-01T13:11:08;100705.19;;;33.96;41.18
43257;BME280;28860;43.212;27.934;2022-09-01T13:13:34;100709.28;;;33.77;41.58
43257;BME280;28860;43.212;27.934;2022-09-01T13:16:16;100679.00;;;33.51;41.97
43257;BME280;28860;43.212;27.934;2022-09-01T13:18:42;100685.91;;;33.37;42.16
43257;BME280;28860;43.212;27.934;2022-09-01T13:21:11;100686.19;;;33.23;42.58
43257;BME280;28860;43.212;27.934;2022-09-01T13:23:41;100724.97;;;33.30;42.69
43257;BME280;28860;43.212;27.934;2022-09-01T13:26:06;100696.25;;;33.12;43.02
43257;BME280;28860;43.212;27.934;2022-09-01T13:28:39;100699.66;;;33.02;43.02
43257;BME280;28860;43.212;27.934;2022-09-01T13:31:17;100691.34;;;32.91;42.99
43257;BME280;28860;43.212;27.934;2022-09-01T13:34:54;100686.84;;;32.66;43.05
43257;BME280;28860;43.212;27.934;2022-09-01T13:40:51;100703.50;;;32.66;43.44
43257;BME280;28860;43.212;27.934;2022-09-01T13:43:23;100709.06;;;32.66;43.44
43257;BME280;28860;43.212;27.934;2022-09-01T13:45:53;100678.38;;;32.37;43.56
43257;BME280;28860;43.212;27.934;2022-09-01T13:48:32;100676.06;;;32.33;43.26
43257;BME280;28860;43.212;27.934;2022-09-01T13:51:04;100704.88;;;32.32;43.61
43257;BME280;28860;43.212;27.934;2022-09-01T13:53:50;100706.69;;;32.27;44.12
43257;BME280;28860;43.212;27.934;2022-09-01T14:03:17;100667.91;;;31.96;44.07
43257;BME280;28860;43.212;27.934;2022-09-01T14:05:49;100667.06;;;31.96;44.35
43257;BME280;28860;43.212;27.934;2022-09-01T14:08:18;100664.50;;;31.94;44.22
43257;BME280;28860;43.212;27.934;2022-09-01T14:10:49;100689.88;;;32.10;44.31
43257;BME280;28860;43.212;27.934;2022-09-01T14:13:20;100687.25;;;32.15;44.12
43257;BME280;28860;43.212;27.934;2022-09-01T14:15:46;100673.22;;;32.10;44.33
43257;BME280;28860;43.212;27.934;2022-09-01T14:18:12;100679.63;;;32.10;44.34
43257;BME280;28860;43.212;27.934;2022-09-01T14:20:44;100688.19;;;32.09;44.66
43257;BME280;28860;43.212;27.934;2022-09-01T14:23:11;100677.69;;;32.11;44.60
43257;BME280;28860;43.212;27.934;2022-09-01T14:25:43;100672.75;;;32.13;44.04
43257;BME280;28860;43.212;27.934;2022-09-01T14:28:08;100671.81;;;32.19;44.49
43257;BME280;28860;43.212;27.934;2022-09-01T14:30:39;100654.44;;;32.12;44.29
43257;BME280;28860;43.212;27.934;2022-09-01T14:33:06;100664.38;;;32.31;44.58
43257;BME280;28860;43.212;27.934;2022-09-01T14:35:37;100647.81;;;32.25;44.40
43257;BME280;28860;43.212;27.934;2022-09-01T14:38:03;100663.69;;;32.48;43.97
43257;BME280;28860;43.212;27.934;2022-09-01T14:40:32;100646.16;;;32.47;43.94
43257;BME280;28860;43.212;27.934;2022-09-01T14:42:58;100658.34;;;32.58;43.67
43257;BME280;28860;43.212;27.934;2022-09-01T14:45:28;100645.09;;;32.49;43.96
43257;BME280;28860;43.212;27.934;2022-09-01T14:47:55;100670.69;;;32.63;43.89
43257;BME280;28860;43.212;27.934;2022-09-01T14:50:23;100675.38;;;32.62;43.33
43257;BME280;28860;43.212;27.934;2022-09-01T14:52:52;100663.06;;;32.58;43.58
43257;BME280;28860;43.212;27.934;2022-09-01T14:55:19;100658.84;;;32.67;43.50
43257;BME280;28860;43.212;27.934;2022-09-01T14:57:45;100662.47;;;32.68;43.43
43257;BME280;28860;43.212;27.934;2022-09-01T15:00:11;100662.22;;;32.69;43.53
43257;BME280;28860;43.212;27.934;2022-09-01T15:02:41;100673.56;;;32.68;43.68
43257;BME280;28860;43.212;27.934;2022-09-01T15:05:07;100672.22;;;32.58;43.44
43257;BME280;28860;43.212;27.934;2022-09-01T15:07:34;100666.56;;;32.53;43.56
43257;BME280;28860;43.212;27.934;2022-09-01T15:10:04;100667.06;;;32.50;43.88
43257;BME280;28860;43.212;27.934;2022-09-01T15:12:30;100660.16;;;32.41;43.75
43257;BME280;28860;43.212;27.934;2022-09-01T15:14:59;100668.97;;;32.38;43.79
43257;BME280;28860;43.212;27.934;2022-09-01T15:17:26;100669.47;;;32.35;44.28
43257;BME280;28860;43.212;27.934;2022-09-01T15:19:53;100672.09;;;32.29;44.10
43257;BME280;28860;43.212;27.934;2022-09-01T15:22:23;100677.63;;;32.29;43.90
43257;BME280;28860;43.212;27.934;2022-09-01T15:24:51;100674.34;;;32.21;44.15
43257;BME280;28860;43.212;27.934;2022-09-01T15:27:19;100671.09;;;32.24;44.15
43257;BME280;28860;43.212;27.934;2022-09-01T15:29:47;100666.00;;;32.09;44.27
43257;BME280;28860;43.212;27.934;2022-09-01T15:32:13;100677.22;;;32.14;44.01
43257;BME280;28860;43.212;27.934;2022-09-01T15:34:40;100676.16;;;32.15;43.98
43257;BME280;28860;43.212;27.934;2022-09-01T15:37:06;100677.94;;;32.09;44.25
43257;BME280;28860;43.212;27.934;2022-09-01T15:39:32;100684.31;;;32.10;44.13
43257;BME280;28860;43.212;27.934;2022-09-01T15:42:00;100686.50;;;32.08;44.07
43257;BME280;28860;43.212;27.934;2022-09-01T15:44:27;100699.28;;;32.09;43.93
43257;BME280;28860;43.212;27.934;2022-09-01T15:46:53;100697.91;;;31.99;44.05
43257;BME280;28860;43.212;27.934;2022-09-01T15:49:19;100694.22;;;32.05;44.01
43257;BME280;28860;43.212;27.934;2022-09-01T15:51:45;100683.00;;;32.00;44.13
43257;BME280;28860;43.212;27.934;2022-09-01T15:54:13;100682.25;;;31.93;44.37
43257;BME280;28860;43.212;27.934;2022-09-01T15:56:41;100693.44;;;31.98;44.52
43257;BME280;28860;43.212;27.934;2022-09-01T15:59:10;100698.66;;;31.95;44.65
43257;BME280;28860;43.212;27.934;2022-09-01T16:01:38;100684.72;;;31.83;44.88
43257;BME280;28860;43.212;27.934;2022-09-01T16:04:06;100684.72;;;31.83;44.75
43257;BME280;28860;43.212;27.934;2022-09-01T16:06:33;100680.28;;;31.63;44.62
43257;BME280;28860;43.212;27.934;2022-09-01T16:08:58;100694.19;;;31.75;44.55
43257;BME280;28860;43.212;27.934;2022-09-01T16:11:25;100703.53;;;31.81;44.15
43257;BME280;28860;43.212;27.934;2022-09-01T16:13:54;100704.59;;;31.80;44.20
43257;BME280;28860;43.212;27.934;2022-09-01T16:19:46;100697.53;;;31.65;43.98
43257;BME280;28860;43.212;27.934;2022-09-01T16:22:23;100707.06;;;31.69;43.59
43257;BME280;28860;43.212;27.934;2022-09-01T16:24:52;100716.00;;;31.53;43.89
43257;BME280;28860;43.212;27.934;2022-09-01T16:27:23;100719.66;;;31.53;44.02
43257;BME280;28860;43.212;27.934;2022-09-01T16:29:57;100704.19;;;31.45;43.26
43257;BME280;28860;43.212;27.934;2022-09-01T16:32:27;100707.56;;;31.47;43.60
43257;BME280;28860;43.212;27.934;2022-09-01T16:34:53;100714.19;;;31.46;43.57
43257;BME280;28860;43.212;27.934;2022-09-01T16:37:55;100711.56;;;31.52;43.79
43257;BME280;28860;43.212;27.934;2022-09-01T16:40:52;100702.97;;;31.41;43.83
43257;BME280;28860;43.212;27.934;2022-09-01T16:43:33;100707.44;;;31.42;43.22
43257;BME280;28860;43.212;27.934;2022-09-01T16:46:18;100714.19;;;31.46;43.16
43257;BME280;28860;43.212;27.934;2022-09-01T16:48:57;100708.34;;;31.36;43.02
43257;BME280;28860;43.212;27.934;2022-09-01T16:52:28;100728.34;;;31.38;43.05
43257;BME280;28860;43.212;27.934;2022-09-01T17:00:17;100737.72;;;31.37;43.33
43257;BME280;28860;43.212;27.934;2022-09-01T17:05:26;100747.59;;;31.33;42.69
43257;BME280;28860;43.212;27.934;2022-09-01T17:10:42;100750.50;;;31.38;42.83
43257;BME280;28860;43.212;27.934;2022-09-01T17:13:34;100758.19;;;31.36;43.03
43257;BME280;28860;43.212;27.934;2022-09-01T17:18:44;100771.84;;;31.38;43.09
43257;BME280;28860;43.212;27.934;2022-09-01T17:23:49;100770.31;;;31.16;43.08
43257;BME280;28860;43.212;27.934;2022-09-01T17:26:24;100770.78;;;31.13;43.03
43257;BME280;28860;43.212;27.934;2022-09-01T17:28:54;100780.53;;;31.16;43.08
43257;BME280;28860;43.212;27.934;2022-09-01T17:31:44;100784.63;;;31.13;43.43
43257;BME280;28860;43.212;27.934;2022-09-01T17:39:34;100790.78;;;31.15;42.87
43257;BME280;28860;43.212;27.934;2022-09-01T17:42:23;100800.16;;;31.14;42.46
43257;BME280;28860;43.212;27.934;2022-09-01T17:45:44;100793.38;;;31.10;42.63
43257;BME280;28860;43.212;27.934;2022-09-01T17:48:06;100794.44;;;31.09;42.84
43257;BME280;28860;43.212;27.934;2022-09-01T17:53:47;100798.81;;;30.98;42.89
43257;BME280;28860;43.212;27.934;2022-09-01T17:56:36;100800.75;;;30.98;43.17
43257;BME280;28860;43.212;27.934;2022-09-01T18:10:16;100804.25;;;30.86;43.10
43257;BME280;28860;43.212;27.934;2022-09-01T18:12:43;100807.66;;;30.88;42.63
43257;BME280;28860;43.212;27.934;2022-09-01T18:15:12;100805.50;;;30.90;42.78
43257;BME280;28860;43.212;27.934;2022-09-01T18:17:45;100796.22;;;30.78;42.81
43257;BME280;28860;43.212;27.934;2022-09-01T18:20:24;100811.50;;;30.87;42.71
43257;BME280;28860;43.212;27.934;2022-09-01T18:23:04;100788.59;;;30.73;42.93
43257;BME280;28860;43.212;27.934;2022-09-01T18:28:13;100812.78;;;30.85;42.71
43257;BME280;28860;43.212;27.934;2022-09-01T18:38:52;100813.28;;;30.75;42.90
43257;BME280;28860;43.212;27.934;2022-09-01T18:41:36;100813.91;;;30.77;42.44
43257;BME280;28860;43.212;27.934;2022-09-01T18:44:39;100825.59;;;30.79;42.73
43257;BME280;28860;43.212;27.934;2022-09-01T18:47:11;100810.97;;;30.72;42.61
43257;BME280;28860;43.212;27.934;2022-09-01T18:50:12;100823.91;;;30.78;42.24
43257;BME280;28860;43.212;27.934;2022-09-01T18:52:49;100817.13;;;30.74;42.63
43257;BME280;28860;43.212;27.934;2022-09-01T18:58:02;100831.06;;;30.86;42.42
43257;BME280;28860;43.212;27.934;2022-09-01T19:00:41;100831.13;;;30.79;42.54
43257;BME280;28860;43.212;27.934;2022-09-01T19:03:21;100823.44;;;30.81;42.56
43257;BME280;28860;43.212;27.934;2022-09-01T19:20:04;100833.63;;;30.87;42.03
43257;BME280;28860;43.212;27.934;2022-09-01T19:22:46;100823.53;;;30.74;42.13
43257;BME280;28860;43.212;27.934;2022-09-01T19:25:18;100840.47;;;30.85;42.27
43257;BME280;28860;43.212;27.934;2022-09-01T19:28:14;100835.59;;;30.80;42.36
43257;BME280;28860;43.212;27.934;2022-09-01T19:33:43;100822.66;;;30.74;42.30
43257;BME280;28860;43.212;27.934;2022-09-01T19:36:16;100832.41;;;30.83;41.96
43257;BME280;28860;43.212;27.934;2022-09-01T19:38:43;100837.94;;;30.83;42.28
43257;BME280;28860;43.212;27.934;2022-09-01T19:41:40;100827.28;;;30.80;42.12
43257;BME280;28860;43.212;27.934;2022-09-01T19:46:55;100825.28;;;30.69;42.32
43257;BME280;28860;43.212;27.934;2022-09-01T19:49:38;100832.50;;;30.70;42.73
43257;BME280;28860;43.212;27.934;2022-09-01T19:52:10;100820.63;;;30.62;42.24
43257;BME280;28860;43.212;27.934;2022-09-01T19:54:57;100829.34;;;30.59;42.85
43257;BME280;28860;43.212;27.934;2022-09-01T19:57:33;100830.19;;;30.60;42.54
43257;BME280;28860;43.212;27.934;2022-09-01T20:02:45;100832.81;;;30.48;42.80
43257;BME280;28860;43.212;27.934;2022-09-01T20:08:05;100843.25;;;30.46;42.89
43257;BME280;28860;43.212;27.934;2022-09-01T20:13:40;100851.16;;;30.42;42.87
43257;BME280;28860;43.212;27.934;2022-09-01T20:16:33;100853.25;;;30.47;42.61
43257;BME280;28860;43.212;27.934;2022-09-01T20:22:07;100851.84;;;30.38;42.82
43257;BME280;28860;43.212;27.934;2022-09-01T20:24:37;100851.44;;;30.34;42.54
43257;BME280;28860;43.212;27.934;2022-09-01T20:28:23;100850.09;;;30.36;43.08
43257;BME280;28860;43.212;27.934;2022-09-01T20:30:24;100836.56;;;30.28;42.85
43257;BME280;28860;43.212;27.934;2022-09-01T20:33:21;100845.03;;;30.33;43.02
43257;BME280;28860;43.212;27.934;2022-09-01T20:36:28;100809.41;;;30.12;42.86
43257;BME280;28860;43.212;27.934;2022-09-01T20:44:28;100842.94;;;30.22;42.65
43257;BME280;28860;43.212;27.934;2022-09-01T20:46:58;100857.78;;;30.34;42.47
43257;BME280;28860;43.212;27.934;2022-09-01T20:49:23;100841.25;;;30.21;42.08
43257;BME280;28860;43.212;27.934;2022-09-01T20:51:54;100865.00;;;30.35;41.75
43257;BME280;28860;43.212;27.934;2022-09-01T20:54:30;100852.69;;;30.31;42.10
43257;BME280;28860;43.212;27.934;2022-09-01T20:57:03;100857.38;;;30.38;42.08
43257;BME280;28860;43.212;27.934;2022-09-01T20:59:56;100842.72;;;30.30;42.04
43257;BME280;28860;43.212;27.934;2022-09-01T21:02:36;100862.44;;;30.41;41.45
43257;BME280;28860;43.212;27.934;2022-09-01T21:05:20;100856.28;;;30.39;41.54
43257;BME280;28860;43.212;27.934;2022-09-01T21:08:07;100850.56;;;30.33;41.26
43257;BME280;28860;43.212;27.934;2022-09-01T21:10:50;100857.78;;;30.34;41.07
43257;BME280;28860;43.212;27.934;2022-09-01T21:16:11;100863.28;;;30.41;41.05
43257;BME280;28860;43.212;27.934;2022-09-01T21:18:53;100854.34;;;30.39;40.79
43257;BME280;28860;43.212;27.934;2022-09-01T21:24:03;100861.63;;;30.33;40.77
43257;BME280;28860;43.212;27.934;2022-09-01T21:26:34;100856.53;;;30.30;40.87
43257;BME280;28860;43.212;27.934;2022-09-01T21:31:54;100848.94;;;30.19;40.90
43257;BME280;28860;43.212;27.934;2022-09-01T21:34:20;100827.94;;;30.04;40.66
43257;BME280;28860;43.212;27.934;2022-09-01T21:36:55;100848.47;;;30.22;40.51
43257;BME280;28860;43.212;27.934;2022-09-01T21:39:23;100836.88;;;30.06;40.46
43257;BME280;28860;43.212;27.934;2022-09-01T21:41:49;100851.06;;;30.17;40.51
43257;BME280;28860;43.212;27.934;2022-09-01T21:44:15;100845.53;;;30.17;40.69
43257;BME280;28860;43.212;27.934;2022-09-01T21:46:43;100842.59;;;30.12;40.45
43257;BME280;28860;43.212;27.934;2022-09-01T21:49:09;100856.78;;;30.22;40.61
43257;BME280;28860;43.212;27.934;2022-09-01T21:51:36;100829.44;;;30.00;40.76
43257;BME280;28860;43.212;27.934;2022-09-01T21:54:05;100833.25;;;30.13;40.34
43257;BME280;28860;43.212;27.934;2022-09-01T21:56:34;100848.13;;;30.12;40.50
43257;BME280;28860;43.212;27.934;2022-09-01T21:59:02;100842.59;;;30.12;40.44
43257;BME280;28860;43.212;27.934;2022-09-01T22:01:28;100847.31;;;30.04;40.31
43257;BME280;28860;43.212;27.934;2022-09-01T22:03:57;100841.34;;;30.01;40.73
43257;BME280;28860;43.212;27.934;2022-09-01T22:06:23;100843.88;;;30.02;40.39
43257;BME280;28860;43.212;27.934;2022-09-01T22:08:49;100836.25;;;29.98;40.85
43257;BME280;28860;43.212;27.934;2022-09-01T22:11:19;100826.94;;;29.85;40.81
43257;BME280;28860;43.212;27.934;2022-09-01T22:13:47;100839.88;;;29.98;40.52
43257;BME280;28860;43.212;27.934;2022-09-01T22:16:18;100842.63;;;29.98;40.74
43257;BME280;28860;43.212;27.934;2022-09-01T22:18:47;100851.53;;;30.00;40.65
43257;BME280;28860;43.212;27.934;2022-09-01T22:21:13;100824.59;;;29.89;40.69
43257;BME280;28860;43.212;27.934;2022-09-01T22:23:39;100828.19;;;29.96;40.44
43257;BME280;28860;43.212;27.934;2022-09-01T22:26:07;100826.88;;;30.05;40.70
43257;BME280;28860;43.212;27.934;2022-09-01T22:28:36;100831.34;;;30.06;40.24
43257;BME280;28860;43.212;27.934;2022-09-01T22:31:05;100827.94;;;30.04;40.45
43257;BME280;28860;43.212;27.934;2022-09-01T22:33:33;100818.81;;;29.97;40.40
43257;BME280;28860;43.212;27.934;2022-09-01T22:35:59;100820.50;;;29.98;40.21
43257;BME280;28860;43.212;27.934;2022-09-01T22:38:24;100813.72;;;29.94;40.26
43257;BME280;28860;43.212;27.934;2022-09-01T22:40:54;100829.44;;;30.00;40.35
43257;BME280;28860;43.212;27.934;2022-09-01T22:43:22;100816.69;;;29.99;40.08
43257;BME280;28860;43.212;27.934;2022-09-01T22:45:49;100841.75;;;30.11;40.09
43257;BME280;28860;43.212;27.934;2022-09-01T22:48:17;100831.53;;;30.12;40.44
43257;BME280;28860;43.212;27.934;2022-09-01T22:50:47;100838.31;;;30.16;40.05
43257;BME280;28860;43.212;27.934;2022-09-01T22:53:14;100840.47;;;30.14;39.81
43257;BME280;28860;43.212;27.934;2022-09-01T22:55:43;100819.16;;;30.14;40.07
43257;BME280;28860;43.212;27.934;2022-09-01T22:58:10;100815.41;;;30.08;40.12
43257;BME280;28860;43.212;27.934;2022-09-01T23:00:36;100813.69;;;30.07;39.82
43257;BME280;28860;43.212;27.934;2022-09-01T23:03:03;100818.97;;;30.16;39.79
43257;BME280;28860;43.212;27.934;2022-09-01T23:05:30;100815.41;;;30.08;39.85
43257;BME280;28860;43.212;27.934;2022-09-01T23:08:01;100817.50;;;30.06;39.92
43257;BME280;28860;43.212;27.934;2022-09-01T23:10:28;100804.75;;;30.05;39.77
43257;BME280;28860;43.212;27.934;2022-09-01T23:12:54;100815.81;;;30.05;39.45
43257;BME280;28860;43.212;27.934;2022-09-01T23:15:20;100815.78;;;30.12;39.49
43257;BME280;28860;43.212;27.934;2022-09-01T23:17:45;100827.72;;;30.13;39.58
43257;BME280;28860;43.212;27.934;2022-09-01T23:20:12;100823.88;;;30.14;39.49
43257;BME280;28860;43.212;27.934;2022-09-01T23:22:40;100813.72;;;29.94;39.82
43257;BME280;28860;43.212;27.934;2022-09-01T23:25:06;100802.69;;;29.94;39.97
43257;BME280;28860;43.212;27.934;2022-09-01T23:27:35;100803.47;;;30.01;39.42
43257;BME280;28860;43.212;27.934;2022-09-01T23:30:07;100815.41;;;30.02;39.75
43257;BME280;28860;43.212;27.934;2022-09-01T23:32:36;100814.13;;;30.04;39.99
43257;BME280;28860;43.212;27.934;2022-09-01T23:35:03;100819.66;;;29.98;40.05
43257;BME280;28860;43.212;27.934;2022-09-01T23:37:28;100823.50;;;30.03;39.78
43257;BME280;28860;43.212;27.934;2022-09-01T23:39:54;100803.53;;;29.88;39.72
43257;BME280;28860;43.212;27.934;2022-09-01T23:42:22;100824.97;;;29.99;39.99
43257;BME280;28860;43.212;27.934;2022-09-01T23:44:48;100824.34;;;29.97;40.01
43257;BME280;28860;43.212;27.934;2022-09-01T23:47:13;100824.34;;;29.97;39.85
43257;BME280;28860;43.212;27.934;2022-09-01T23:49:40;100820.50;;;29.98;39.98
43257;BME280;28860;43.212;27.934;2022-09-01T23:52:07;100805.22;;;29.89;40.01
43257;BME280;28860;43.212;27.934;2022-09-01T23:54:41;100829.44;;;30.00;40.13
43257;BME280;28860;43.212;27.934;2022-09-01T23:57:11;100794.66;;;29.79;39.71
